Time;durP1;ratioP1;P1;durP2;ratioP2;P2;SDS_P1;SDS_P2;PMS_P1;PMS_P2;Temp;Humidity;BMP_temperature;BMP_pressure;BME280_temperature;BME280_humidity;BME280_pressure;Samples;Min_cycle;Max_cycle;Signal;HPM_P1;HPM_P2
2024/01/01 00:02:11;;;;;;;12.60;8.50;;;;;;;6.12;87.28;95729.21;109156;1272;22898;-82
2024/01/01 00:04:42;;;;;;;12.90;8.70;;;;;;;6.16;87.11;95729.13;109135;1272;22583;-83
2024/01/01 00:07:13;;;;;;;15.10;9.50;;;;;;;6.16;87.14;95730.96;109126;1270;22704;-82
2024/01/01 00:09:44;;;;;;;14.30;8.50;;;;;;;6.07;86.84;95731.13;109133;1272;24335;-82
2024/01/01 00:12:16;;;;;;;12.90;9.10;;;;;;;5.98;86.95;95730.80;109058;1272;107689;-82
2024/01/01 00:14:47;;;;;;;14.80;9.50;;;;;;;6.00;87.21;95728.68;109161;1270;23775;-82
2024/01/01 00:17:18;;;;;;;14.20;9.40;;;;;;;6.08;87.50;95726.08;109162;1267;22541;-82
2024/01/01 00:19:51;;;;;;;12.60;9.00;;;;;;;6.11;87.36;95723.48;109157;1257;22526;-82
2024/01/01 00:22:24;;;;;;;13.60;9.40;;;;;;;6.15;87.37;95719.30;109116;1272;22558;-82
2024/01/01 00:24:55;;;;;;;13.70;8.80;;;;;;;6.19;87.12;95724.07;109130;1270;22523;-82
2024/01/01 00:27:31;;;;;;;13.90;8.80;;;;;;;6.21;87.30;95714.69;109160;1272;22569;-82
2024/01/01 00:30:03;;;;;;;13.50;10.10;;;;;;;6.27;87.36;95712.55;109118;1272;22497;-82
2024/01/01 00:32:37;;;;;;;11.80;8.50;;;;;;;6.34;87.31;95717.23;109129;1272;22535;-82
2024/01/01 00:35:14;;;;;;;13.80;9.80;;;;;;;6.31;87.06;95719.92;109186;1267;22599;-82
2024/01/01 00:37:46;;;;;;;12.10;8.40;;;;;;;6.32;86.99;95720.77;109154;1272;22522;-82
2024/01/01 00:40:17;;;;;;;14.60;9.90;;;;;;;6.33;87.06;95722.86;109147;1270;22639;-82
2024/01/01 00:42:48;;;;;;;13.50;7.90;;;;;;;6.33;86.95;95722.45;109156;1270;23295;-82
2024/01/01 00:45:19;;;;;;;12.70;9.90;;;;;;;6.34;87.22;95720.35;109142;1272;22722;-82
2024/01/01 00:47:55;;;;;;;15.50;9.90;;;;;;;6.35;86.91;95719.09;109204;1272;22638;-82
2024/01/01 00:50:26;;;;;;;13.60;9.50;;;;;;;6.32;86.94;95720.61;109159;1266;22548;-82
2024/01/01 00:52:57;;;;;;;14.00;10.00;;;;;;;6.28;86.77;95720.91;109159;1272;26042;-82
2024/01/01 00:55:28;;;;;;;14.90;11.20;;;;;;;6.26;86.76;95718.98;109166;1272;22540;-82
2024/01/01 00:57:59;;;;;;;14.80;10.80;;;;;;;6.27;86.87;95712.34;109137;1272;22610;-82
2024/01/01 01:00:30;;;;;;;12.70;8.70;;;;;;;6.26;86.76;95711.66;109194;1267;23054;-82
2024/01/01 01:03:00;;;;;;;12.80;9.30;;;;;;;6.22;86.76;95714.95;109093;1272;22497;-82
2024/01/01 01:05:32;;;;;;;14.90;9.30;;;;;;;6.19;86.76;95709.22;109194;1272;22518;-82
2024/01/01 01:08:03;;;;;;;14.60;9.90;;;;;;;6.19;86.89;95705.38;109092;1270;22534;-82
2024/01/01 01:10:36;;;;;;;12.40;9.10;;;;;;;6.17;86.93;95700.86;109107;1265;23936;-82
2024/01/01 01:13:08;;;;;;;14.30;9.50;;;;;;;6.19;86.89;95699.42;109196;1267;22566;-82
2024/01/01 01:15:42;;;;;;;12.80;8.30;;;;;;;6.21;86.94;95693.79;109166;1272;25000;-82
2024/01/01 01:18:13;;;;;;;15.40;9.10;;;;;;;6.20;87.11;95694.49;109168;1272;22539;-82
2024/01/01 01:20:44;;;;;;;13.00;9.40;;;;;;;6.22;86.88;95696.48;109170;1267;24195;-82
2024/01/01 01:23:17;;;;;;;13.20;8.30;;;;;;;6.23;86.98;95697.05;109163;1272;22524;-82
2024/01/01 01:25:51;;;;;;;12.90;9.50;;;;;;;6.23;87.07;95694.73;109190;1266;22528;-82
2024/01/01 01:28:25;;;;;;;13.20;9.20;;;;;;;6.25;87.04;95694.30;109178;1270;22563;-82
2024/01/01 01:30:56;;;;;;;11.90;9.00;;;;;;;6.24;87.00;95692.35;109161;1272;23218;-83
2024/01/01 01:33:27;;;;;;;13.40;8.60;;;;;;;6.21;86.89;95687.59;109135;1272;23999;-82
2024/01/01 01:36:00;;;;;;;13.70;9.60;;;;;;;6.20;87.04;95694.70;109151;1265;23990;-82
2024/01/01 01:38:35;;;;;;;14.20;9.30;;;;;;;6.17;86.97;95693.54;109176;1272;22749;-82
2024/01/01 01:41:07;;;;;;;12.90;9.40;;;;;;;6.12;86.78;95692.52;109165;1272;22466;-82
2024/01/01 01:43:38;;;;;;;12.90;9.20;;;;;;;6.09;86.74;95689.98;109202;1270;22566;-82
2024/01/01 01:46:14;;;;;;;13.20;9.20;;;;;;;6.04;86.80;95689.56;109198;1272;23309;-82
2024/01/01 01:48:46;;;;;;;13.50;9.10;;;;;;;6.08;87.00;95689.09;109194;1266;22521;-82
2024/01/01 01:51:17;;;;;;;12.90;8.20;;;;;;;6.07;87.10;95690.30;109128;1266;23746;-82
2024/01/01 01:53:53;;;;;;;13.00;9.30;;;;;;;6.05;86.94;95688.98;109177;1266;22646;-82
2024/01/01 01:56:25;;;;;;;12.60;9.10;;;;;;;6.04;86.95;95687.08;109103;1269;23998;-82
2024/01/01 01:58:59;;;;;;;13.50;10.00;;;;;;;5.96;86.82;95684.62;109177;1272;23956;-82
2024/01/01 02:01:30;;;;;;;14.50;9.60;;;;;;;5.87;87.04;95686.78;109080;1272;25472;-82
2024/01/01 02:04:01;;;;;;;13.40;8.90;;;;;;;5.84;87.19;95693.37;109134;1265;22568;-82
2024/01/01 02:06:32;;;;;;;11.60;8.50;;;;;;;5.84;87.41;95697.32;109130;1266;22541;-82
2024/01/01 02:09:04;;;;;;;11.00;8.60;;;;;;;5.80;87.13;95704.77;109162;1269;22922;-82
2024/01/01 02:11:35;;;;;;;13.80;8.80;;;;;;;5.76;87.38;95713.76;109108;1272;25553;-82
2024/01/01 02:14:12;;;;;;;12.80;8.30;;;;;;;5.75;87.55;95717.38;109128;1269;22756;-82
2024/01/01 02:16:44;;;;;;;12.50;9.50;;;;;;;5.78;87.64;95721.39;109206;1272;22638;-82
2024/01/01 02:19:20;;;;;;;12.60;8.90;;;;;;;5.79;87.58;95721.18;109187;1266;22551;-82
2024/01/01 02:21:52;;;;;;;12.70;9.80;;;;;;;5.74;87.37;95725.39;109147;1272;22535;-82
2024/01/01 02:24:23;;;;;;;12.90;9.70;;;;;;;5.65;87.44;95719.13;109172;1272;25490;-82
2024/01/01 02:26:54;;;;;;;13.70;8.80;;;;;;;5.59;87.24;95721.33;109082;1272;22605;-82
2024/01/01 02:29:25;;;;;;;13.70;8.80;;;;;;;5.52;87.20;95719.38;109100;1272;22466;-82
2024/01/01 02:31:58;;;;;;;12.10;9.10;;;;;;;5.44;87.26;95711.08;109111;1272;28114;-82
2024/01/01 02:34:29;;;;;;;11.90;8.80;;;;;;;5.34;87.15;95711.53;109122;1272;23480;-82
2024/01/01 02:36:59;;;;;;;13.80;9.10;;;;;;;5.27;87.47;95709.02;109127;1266;22542;-82
2024/01/01 02:39:30;;;;;;;12.40;8.60;;;;;;;5.21;87.53;95709.77;109175;1266;22627;-82
2024/01/01 02:42:01;;;;;;;12.80;9.00;;;;;;;5.13;87.57;95704.21;109123;1270;25509;-82
2024/01/01 02:44:32;;;;;;;12.40;8.70;;;;;;;5.08;87.68;95702.45;109062;1272;22556;-82
2024/01/01 02:47:03;;;;;;;13.30;8.80;;;;;;;5.04;87.83;95698.48;109149;1250;22531;-82
2024/01/01 02:49:34;;;;;;;12.80;8.50;;;;;;;4.92;87.39;95699.58;109106;1272;22551;-82
2024/01/01 02:52:08;;;;;;;11.90;8.30;;;;;;;4.75;87.35;95696.69;109123;1270;25250;-82
2024/01/01 02:54:40;;;;;;;12.70;8.30;;;;;;;4.61;87.59;95696.41;109105;1272;22532;-82
2024/01/01 02:57:14;;;;;;;10.90;8.80;;;;;;;4.54;88.10;95692.96;109146;1269;25236;-82
2024/01/01 02:59:45;;;;;;;12.60;8.60;;;;;;;4.53;88.57;95690.23;109190;1272;22518;-82
2024/01/01 03:02:16;;;;;;;12.80;9.30;;;;;;;4.55;89.03;95685.50;109171;1272;25344;-82
2024/01/01 03:04:47;;;;;;;12.20;8.30;;;;;;;4.58;89.23;95686.91;109134;1266;22723;-82
2024/01/01 03:07:18;;;;;;;13.70;7.50;;;;;;;4.60;89.29;95687.96;109108;1266;22820;-82
2024/01/01 03:09:50;;;;;;;11.80;7.80;;;;;;;4.59;89.31;95686.65;109111;1267;22585;-82
2024/01/01 03:12:21;;;;;;;12.30;8.50;;;;;;;4.59;89.54;95681.30;109110;1266;22515;-82
2024/01/01 03:14:52;;;;;;;12.00;8.10;;;;;;;4.58;89.72;95679.73;109132;1266;23215;-82
2024/01/01 03:17:23;;;;;;;10.60;7.00;;;;;;;4.56;89.85;95681.73;109132;1272;22527;-82
2024/01/01 03:19:54;;;;;;;11.60;7.80;;;;;;;4.55;89.99;95675.69;109159;1266;22531;-82
2024/01/01 03:22:25;;;;;;;11.30;8.40;;;;;;;4.56;90.31;95668.50;109098;1272;23797;-82
2024/01/01 03:24:56;;;;;;;12.40;9.20;;;;;;;4.60;90.54;95666.55;109173;1272;22620;-82
2024/01/01 03:27:27;;;;;;;12.30;8.60;;;;;;;4.62;90.68;95669.10;109179;1272;22547;-82
2024/01/01 03:29:58;;;;;;;11.70;8.00;;;;;;;4.63;90.73;95669.84;109175;1272;22540;-82
2024/01/01 03:32:31;;;;;;;12.20;8.60;;;;;;;4.62;90.46;95674.36;109162;1272;22596;-82
2024/01/01 03:35:02;;;;;;;12.00;8.40;;;;;;;4.63;90.90;95669.33;109079;1270;22572;-82
2024/01/01 03:37:33;;;;;;;13.10;8.70;;;;;;;4.63;90.51;95673.42;109163;1272;22632;-82
2024/01/01 03:40:06;;;;;;;9.70;7.50;;;;;;;4.55;90.31;95678.10;109124;1249;22518;-82
2024/01/01 03:42:39;;;;;;;12.50;8.80;;;;;;;4.51;90.47;95679.73;109107;1272;28561;-82
2024/01/01 03:45:12;;;;;;;14.10;9.30;;;;;;;4.46;90.56;95674.62;109200;1272;22514;-82
2024/01/01 03:47:43;;;;;;;12.50;9.10;;;;;;;4.46;90.74;95671.27;109211;1269;22598;-82
2024/01/01 03:50:16;;;;;;;13.70;9.20;;;;;;;4.47;90.99;95663.65;109223;1272;24209;-82
2024/01/01 03:52:47;;;;;;;14.00;9.30;;;;;;;4.49;91.12;95664.07;109228;1272;27495;-82
2024/01/01 03:55:18;;;;;;;12.70;8.70;;;;;;;4.51;91.14;95660.37;109213;1266;22644;-82
2024/01/01 03:57:49;;;;;;;14.50;9.50;;;;;;;4.54;91.38;95661.58;109203;1272;22513;-82
2024/01/01 04:00:21;;;;;;;14.30;10.40;;;;;;;4.55;91.53;95656.00;109170;1271;24170;-82
2024/01/01 04:02:51;;;;;;;11.80;9.20;;;;;;;4.55;91.33;95654.02;109233;1269;22996;-82
2024/01/01 04:05:25;;;;;;;13.20;9.10;;;;;;;4.48;91.05;95650.42;109179;1271;24366;-82
2024/01/01 04:07:56;;;;;;;14.80;9.90;;;;;;;4.43;91.25;95646.50;109207;1272;22593;-82
2024/01/01 04:10:27;;;;;;;15.00;10.20;;;;;;;4.46;91.72;95652.84;109190;1266;22626;-82
2024/01/01 04:12:58;;;;;;;12.90;9.10;;;;;;;4.48;91.87;95647.16;109206;1272;25009;-81
2024/01/01 04:15:31;;;;;;;16.10;9.30;;;;;;;4.51;91.84;95640.56;109202;1268;22538;-82
2024/01/01 04:18:02;;;;;;;14.70;9.50;;;;;;;4.50;91.85;95632.91;109291;1269;22507;-81
2024/01/01 04:20:33;;;;;;;12.10;8.30;;;;;;;4.51;91.88;95633.39;109233;1269;22477;-82
2024/01/01 04:23:05;;;;;;;11.90;7.70;;;;;;;4.41;91.43;95629.60;109195;1266;23353;-82
2024/01/01 04:25:37;;;;;;;13.00;9.20;;;;;;;4.22;90.95;95638.35;109214;1272;22969;-82
2024/01/01 04:28:10;;;;;;;11.50;8.30;;;;;;;4.07;91.19;95639.75;109239;1272;23268;-82
2024/01/01 04:30:41;;;;;;;11.10;7.60;;;;;;;4.05;91.98;95648.13;109198;1272;25424;-82
2024/01/01 04:33:12;;;;;;;12.30;8.30;;;;;;;4.08;92.16;95651.56;109188;1272;22525;-81
2024/01/01 04:35:43;;;;;;;12.80;8.70;;;;;;;4.10;92.55;95654.30;109165;1266;22544;-82
2024/01/01 04:38:16;;;;;;;19.50;12.00;;;;;;;4.16;92.88;95649.00;109223;1272;22521;-82
2024/01/01 04:40:48;;;;;;;14.60;10.40;;;;;;;4.30;93.34;95646.48;109206;1272;23868;-82
2024/01/01 04:43:26;;;;;;;13.10;9.10;;;;;;;4.44;93.53;95651.84;109236;1272;25351;-82
2024/01/01 04:45:57;;;;;;;14.40;9.00;;;;;;;4.58;93.61;95647.76;109277;1272;22622;-82
2024/01/01 04:48:28;;;;;;;11.80;7.20;;;;;;;4.73;93.65;95649.38;109203;1271;22545;-82
2024/01/01 04:50:59;;;;;;;12.20;8.50;;;;;;;4.79;93.46;95643.54;109246;1272;22593;-81
2024/01/01 04:53:30;;;;;;;15.00;10.10;;;;;;;4.71;93.24;95640.66;109204;1272;27272;-82
2024/01/01 04:56:03;;;;;;;13.60;9.70;;;;;;;4.70;93.67;95634.73;109233;1272;22615;-82
2024/01/01 04:58:34;;;;;;;13.30;9.80;;;;;;;4.72;93.67;95632.67;109246;1267;23296;-81
2024/01/01 05:01:07;;;;;;;12.50;9.00;;;;;;;4.76;93.85;95632.30;109226;1270;22532;-81
2024/01/01 05:03:38;;;;;;;13.10;9.40;;;;;;;4.71;93.63;95630.11;109186;1266;22590;-81
2024/01/01 05:06:11;;;;;;;14.80;9.90;;;;;;;4.67;93.45;95634.74;109194;1272;22614;-82
2024/01/01 05:08:45;;;;;;;15.00;10.20;;;;;;;4.65;93.58;95633.16;109146;1271;22520;-82
2024/01/01 05:11:16;;;;;;;13.90;10.50;;;;;;;4.65;93.58;95630.16;109127;1272;22568;-82
2024/01/01 05:13:50;;;;;;;14.40;9.30;;;;;;;4.65;93.77;95627.44;109122;1272;22531;-82
2024/01/01 05:16:23;;;;;;;13.60;9.40;;;;;;;4.62;93.55;95631.01;109129;1272;22500;-81
2024/01/01 05:18:57;;;;;;;17.70;12.00;;;;;;;4.54;93.32;95633.65;109163;1270;23325;-82
2024/01/01 05:21:30;;;;;;;15.70;10.50;;;;;;;4.49;93.47;95634.67;109209;1266;25424;-80
2024/01/01 05:24:00;;;;;;;16.90;11.60;;;;;;;4.48;93.69;95630.54;109236;1266;24405;-81
2024/01/01 05:26:31;;;;;;;16.40;11.10;;;;;;;4.49;93.79;95627.86;109198;1272;22528;-81
2024/01/01 05:29:02;;;;;;;16.50;11.20;;;;;;;4.52;93.98;95624.77;109213;1272;22517;-81
2024/01/01 05:31:36;;;;;;;15.00;10.40;;;;;;;4.54;94.05;95616.38;109184;1271;24210;-81
2024/01/01 05:34:09;;;;;;;17.00;11.80;;;;;;;4.54;94.14;95602.20;109195;1269;24207;-82
2024/01/01 05:36:40;;;;;;;16.10;11.90;;;;;;;4.54;94.19;95594.12;109204;1266;22543;-82
2024/01/01 05:39:14;;;;;;;17.70;12.40;;;;;;;4.55;94.14;95592.59;109205;1269;22479;-82
2024/01/01 05:41:45;;;;;;;16.60;12.00;;;;;;;4.55;94.13;95594.23;109172;1269;22537;-81
2024/01/01 05:44:16;;;;;;;16.10;11.60;;;;;;;4.57;94.08;95600.20;109219;1266;22567;-82
2024/01/01 05:46:47;;;;;;;16.10;10.20;;;;;;;4.54;93.88;95603.09;109202;1272;25424;-82
2024/01/01 05:49:19;;;;;;;16.70;11.60;;;;;;;4.43;93.82;95603.52;109109;1272;22527;-82
2024/01/01 05:51:51;;;;;;;20.40;12.10;;;;;;;4.35;93.88;95596.54;109216;1270;23423;-82
2024/01/01 05:54:25;;;;;;;17.90;11.80;;;;;;;4.33;94.11;95591.45;109205;1268;22608;-82
2024/01/01 05:56:58;;;;;;;16.20;12.30;;;;;;;4.36;94.31;95584.46;109173;1272;22523;-81
2024/01/01 05:59:29;;;;;;;17.00;12.70;;;;;;;4.37;94.53;95577.40;109235;1272;22577;-82
2024/01/01 06:01:59;;;;;;;18.60;11.30;;;;;;;4.37;94.58;95567.58;109159;1272;26469;-82
2024/01/01 06:04:30;;;;;;;19.40;13.70;;;;;;;4.35;94.56;95563.26;109220;1272;23618;-81
2024/01/01 06:07:01;;;;;;;19.60;14.10;;;;;;;4.36;94.79;95563.36;109171;1272;22524;-82
2024/01/01 06:09:34;;;;;;;19.40;14.80;;;;;;;4.37;95.03;95569.42;109221;1269;23824;-82
2024/01/01 06:12:06;;;;;;;21.80;14.80;;;;;;;4.40;95.00;95570.30;109198;1272;22532;-82
2024/01/01 06:14:40;;;;;;;18.40;13.50;;;;;;;4.44;95.33;95571.55;109187;1272;23859;-82
2024/01/01 06:17:11;;;;;;;20.70;15.60;;;;;;;4.47;95.38;95567.45;109250;1272;22767;-82
2024/01/01 06:19:42;;;;;;;22.50;15.30;;;;;;;4.51;95.20;95566.35;109177;1266;23232;-81
2024/01/01 06:22:13;;;;;;;20.70;15.00;;;;;;;4.53;95.25;95571.86;109185;1272;22735;-81
2024/01/01 06:24:46;;;;;;;20.20;14.70;;;;;;;4.55;95.27;95577.63;109213;1272;22524;-82
2024/01/01 06:27:16;;;;;;;21.90;15.40;;;;;;;4.56;95.22;95579.58;109246;1272;22569;-82
2024/01/01 06:29:49;;;;;;;20.00;12.90;;;;;;;4.57;95.23;95577.42;109197;1265;22933;-82
2024/01/01 06:32:20;;;;;;;17.70;12.90;;;;;;;4.53;95.11;95576.38;109183;1272;22463;-82
2024/01/01 06:34:51;;;;;;;17.80;12.40;;;;;;;4.50;94.99;95580.31;109197;1272;22531;-82
2024/01/01 06:37:22;;;;;;;17.50;13.10;;;;;;;4.48;95.21;95575.27;109204;1272;24209;-82
2024/01/01 06:39:53;;;;;;;17.90;12.90;;;;;;;4.48;95.25;95566.55;109200;1250;22527;-82
2024/01/01 06:42:25;;;;;;;18.40;12.90;;;;;;;4.48;95.30;95569.81;109187;1262;22523;-81
2024/01/01 06:45:01;;;;;;;18.20;12.60;;;;;;;4.47;95.33;95575.01;109234;1272;22588;-82
2024/01/01 06:47:31;;;;;;;17.40;11.10;;;;;;;4.48;95.52;95585.56;109196;1272;22527;-82
2024/01/01 06:50:06;;;;;;;20.00;13.00;;;;;;;4.45;95.48;95592.43;109153;1272;22531;-81
2024/01/01 06:52:37;;;;;;;18.70;13.20;;;;;;;4.40;95.63;95597.29;109156;1251;22532;-81
2024/01/01 06:55:09;;;;;;;19.20;14.20;;;;;;;4.37;95.72;95592.67;109204;1272;22556;-81
2024/01/01 06:57:40;;;;;;;18.50;13.00;;;;;;;4.36;96.01;95588.94;109157;1272;22617;-82
2024/01/01 07:00:15;;;;;;;32.90;23.20;;;;;;;4.42;96.49;95583.00;109157;1272;22682;-82
2024/01/01 07:02:46;;;;;;;24.30;16.50;;;;;;;4.44;96.18;95584.03;109254;1272;25263;-81
2024/01/01 07:05:17;;;;;;;23.00;15.60;;;;;;;4.43;96.58;95589.35;109192;1272;22650;-82
2024/01/01 07:07:48;;;;;;;25.10;15.40;;;;;;;4.42;96.79;95590.41;109167;1269;22524;-81
2024/01/01 07:10:19;;;;;;;23.40;15.80;;;;;;;4.43;97.01;95588.51;109167;1266;24212;-82
2024/01/01 07:12:50;;;;;;;23.50;17.60;;;;;;;4.44;97.36;95584.25;109206;1272;22527;-82
2024/01/01 07:15:21;;;;;;;24.40;17.50;;;;;;;4.46;97.57;95584.04;109175;1272;23265;-82
2024/01/01 07:17:52;;;;;;;23.70;15.70;;;;;;;4.50;97.80;95587.88;109204;1264;22557;-82
2024/01/01 07:20:24;;;;;;;23.40;16.70;;;;;;;4.58;98.11;95589.44;109223;1272;22556;-83
2024/01/01 07:22:55;;;;;;;21.00;15.20;;;;;;;4.61;98.01;95586.31;109166;1266;24177;-82
2024/01/01 07:25:25;;;;;;;19.70;13.50;;;;;;;4.63;97.94;95580.33;109182;1272;25417;-83
2024/01/01 07:27:57;;;;;;;23.20;16.30;;;;;;;4.62;97.83;95578.40;109183;1266;22557;-82
2024/01/01 07:30:29;;;;;;;25.00;17.00;;;;;;;4.61;97.92;95576.40;109193;1266;24234;-82
2024/01/01 07:33:00;;;;;;;20.50;14.80;;;;;;;4.60;97.97;95578.14;109207;1266;32947;-82
2024/01/01 07:35:31;;;;;;;19.50;13.60;;;;;;;4.59;97.82;95584.23;109202;1266;22769;-83
2024/01/01 07:38:02;;;;;;;18.30;14.00;;;;;;;4.57;97.73;95589.38;109196;1266;24289;-83
2024/01/01 07:40:33;;;;;;;14.20;9.40;;;;;;;4.57;97.91;95590.95;109193;1266;22518;-83
2024/01/01 07:43:05;;;;;;;24.10;17.60;;;;;;;4.56;97.77;95587.08;109129;1272;24745;-83
2024/01/01 07:45:36;;;;;;;20.60;14.30;;;;;;;4.51;97.75;95591.08;109172;1272;23690;-82
2024/01/01 07:48:09;;;;;;;24.90;13.20;;;;;;;4.44;97.61;95595.21;109168;1272;22521;-82
2024/01/01 07:50:40;;;;;;;23.50;14.40;;;;;;;4.37;97.66;95593.81;109182;1272;22524;-83
2024/01/01 07:53:13;;;;;;;20.10;14.30;;;;;;;4.30;97.71;95590.86;109200;1269;22528;-83
2024/01/01 07:55:44;;;;;;;22.90;16.00;;;;;;;4.25;97.93;95590.46;109194;1272;22571;-83
2024/01/01 07:58:18;;;;;;;21.80;15.00;;;;;;;4.17;97.83;95585.10;109179;1272;22949;-83
2024/01/01 08:00:49;;;;;;;21.90;15.20;;;;;;;4.10;98.08;95584.74;109217;1269;22476;-83
2024/01/01 08:03:21;;;;;;;24.10;16.10;;;;;;;4.04;98.16;95581.90;109147;1272;22508;-82
2024/01/01 08:05:52;;;;;;;21.10;13.80;;;;;;;3.99;98.05;95580.64;109204;1269;22470;-83
2024/01/01 08:08:23;;;;;;;20.00;13.20;;;;;;;3.95;98.25;95580.53;109234;1266;25424;-82
2024/01/01 08:10:56;;;;;;;18.70;9.40;;;;;;;3.89;98.35;95577.84;109218;1272;24200;-82
2024/01/01 08:13:29;;;;;;;20.10;13.60;;;;;;;3.83;98.56;95575.18;109198;1262;24241;-82
2024/01/01 08:16:06;;;;;;;20.20;13.00;;;;;;;3.80;98.50;95585.60;109209;1272;22521;-83
2024/01/01 08:18:37;;;;;;;18.90;11.10;;;;;;;3.78;98.60;95581.28;109198;1265;22565;-82
2024/01/01 08:21:10;;;;;;;21.60;12.40;;;;;;;3.74;98.44;95578.35;109206;1272;22609;-82
2024/01/01 08:23:42;;;;;;;22.20;14.40;;;;;;;3.70;98.52;95574.05;109156;1272;22513;-82
2024/01/01 08:26:13;;;;;;;16.00;10.60;;;;;;;3.67;98.59;95573.48;109230;1269;22554;-80
2024/01/01 08:28:51;;;;;;;18.70;12.90;;;;;;;3.62;98.84;95576.75;109191;1263;22517;-81
2024/01/01 08:31:22;;;;;;;19.10;12.10;;;;;;;3.56;98.64;95574.55;109125;1271;25424;-80
2024/01/01 08:33:53;;;;;;;18.00;12.20;;;;;;;3.47;98.56;95581.80;109152;1269;23310;-81
2024/01/01 08:36:27;;;;;;;16.20;11.50;;;;;;;3.41;98.58;95574.66;109250;1272;22687;-82
2024/01/01 08:38:59;;;;;;;17.20;10.00;;;;;;;3.33;98.63;95579.82;109160;1266;25424;-81
2024/01/01 08:41:29;;;;;;;17.00;9.20;;;;;;;3.27;98.87;95574.58;109180;1271;22948;-81
2024/01/01 08:44:00;;;;;;;14.10;10.20;;;;;;;3.21;98.72;95579.72;109146;1266;22503;-82
2024/01/01 08:46:32;;;;;;;9.40;6.80;;;;;;;3.18;98.76;95576.05;109197;1268;24145;-81
2024/01/01 08:49:07;;;;;;;14.00;9.30;;;;;;;3.14;98.94;95580.97;109224;1266;22535;-82
2024/01/01 08:51:37;;;;;;;14.40;10.10;;;;;;;3.09;98.98;95590.14;109115;1266;30637;-81
2024/01/01 08:54:13;;;;;;;15.30;9.90;;;;;;;3.07;99.00;95593.75;109160;1271;22713;-77
2024/01/01 08:56:46;;;;;;;15.70;10.70;;;;;;;3.03;98.98;95597.62;109276;1269;24202;-81
2024/01/01 08:59:17;;;;;;;16.50;11.10;;;;;;;3.02;99.08;95602.59;109254;1266;22485;-81
2024/01/01 09:01:49;;;;;;;14.10;10.40;;;;;;;3.01;98.99;95604.37;109276;1266;22913;-81
2024/01/01 09:04:20;;;;;;;15.90;10.50;;;;;;;3.00;98.97;95607.25;109517;1272;25261;-81
2024/01/01 09:06:51;;;;;;;12.20;6.20;;;;;;;2.94;98.89;95610.04;109473;1269;22574;-81
2024/01/01 09:09:24;;;;;;;10.90;8.20;;;;;;;2.84;99.13;95617.84;109381;1266;22564;-82
2024/01/01 09:12:00;;;;;;;11.00;6.20;;;;;;;2.78;99.29;95614.91;109355;1272;22526;-81
2024/01/01 09:14:31;;;;;;;15.20;10.10;;;;;;;2.70;99.39;95609.85;109421;1272;22574;-81
2024/01/01 09:17:07;;;;;;;15.10;10.60;;;;;;;2.65;99.28;95611.33;109602;1272;22590;-81
2024/01/01 09:19:41;;;;;;;12.60;8.50;;;;;;;2.63;99.30;95604.67;109593;1271;22537;-80
2024/01/01 09:25:28;;;;;;;6.40;4.30;;;;;;;2.60;99.52;95600.16;109244;1250;22514;-83
2024/01/01 09:28:02;;;;;;;5.70;4.20;;;;;;;2.53;99.80;95600.99;109193;1265;22511;-81
2024/01/01 09:30:56;;;;;;;10.40;4.30;;;;;;;2.45;99.99;95597.55;109236;1266;24307;-81
2024/01/01 09:33:37;;;;;;;;;;;;;;;;;;;;;
2024/01/01 09:36:24;;;;;;;7.90;5.80;;;;;;;2.40;99.94;95603.43;109224;1271;22538;-82
2024/01/01 09:39:05;;;;;;;9.20;5.50;;;;;;;2.37;99.93;95608.42;109215;1266;22465;-82
2024/01/01 09:41:59;;;;;;;9.60;4.60;;;;;;;2.35;99.97;95600.35;107669;1269;2039904;-82
2024/01/01 09:44:32;;;;;;;5.20;3.30;;;;;;;2.35;99.99;95595.02;109228;1266;24946;-82
2024/01/01 09:47:23;;;;;;;3.90;2.40;;;;;;;2.35;100.00;95585.13;109202;1272;22570;-81
2024/01/01 09:49:58;;;;;;;3.10;2.00;;;;;;;2.31;100.00;95584.64;109142;1272;22576;-82
2024/01/01 09:52:42;;;;;;;2.30;1.50;;;;;;;2.28;100.00;95588.07;107854;1265;1782130;-83
2024/01/01 09:55:33;;;;;;;3.30;1.70;;;;;;;2.19;100.00;95597.67;109208;1266;24420;-82
2024/01/01 09:58:04;;;;;;;;;;;;;;;2.13;100.00;95598.83;109193;1267;24158;-82
2024/01/01 10:00:48;;;;;;;3.50;2.30;;;;;;;2.08;100.00;95596.67;109244;1272;22482;-82
2024/01/01 10:03:30;;;;;;;;;;;;;;;;;;;;;
2024/01/01 10:06:15;;;;;;;2.10;1.50;;;;;;;2.06;100.00;95593.54;109173;1271;22521;-85
2024/01/01 10:09:05;;;;;;;5.30;1.90;;;;;;;2.06;100.00;95585.23;109198;1269;22598;-81
2024/01/01 10:11:38;;;;;;;3.50;2.20;;;;;;;2.07;100.00;95589.72;109081;1272;87186;-81
2024/01/01 10:14:17;;;;;;;4.10;1.90;;;;;;;2.08;100.00;95592.50;109232;1272;24235;-81
2024/01/01 10:16:50;;;;;;;3.50;2.00;;;;;;;2.06;99.99;95587.47;109240;1266;22571;-82
2024/01/01 10:19:21;;;;;;;2.60;1.50;;;;;;;2.02;100.00;95590.85;109232;1268;22701;-81
2024/01/01 10:21:55;;;;;;;1.20;0.80;;;;;;;1.95;99.98;95600.55;109136;1266;73807;-81
2024/01/01 10:24:27;;;;;;;3.10;1.20;;;;;;;1.84;99.99;95607.36;109222;1269;23792;-80
2024/01/01 10:27:02;;;;;;;2.70;1.50;;;;;;;1.77;99.95;95608.02;109210;1269;22528;-80
2024/01/01 10:29:41;;;;;;;2.30;0.80;;;;;;;1.72;100.00;95605.67;109119;1269;25271;-80
2024/01/01 10:32:18;;;;;;;2.70;1.40;;;;;;;1.69;100.00;95608.09;109167;1266;54888;-80
2024/01/01 10:34:50;;;;;;;2.10;1.00;;;;;;;1.64;100.00;95619.59;109184;1269;23167;-80
2024/01/01 10:37:28;;;;;;;2.60;1.00;;;;;;;1.60;100.00;95618.14;109153;1272;22541;-81
2024/01/01 10:40:05;;;;;;;2.70;1.40;;;;;;;1.52;100.00;95618.05;109180;1266;26060;-81
2024/01/01 10:42:48;;;;;;;2.20;1.00;;;;;;;1.48;100.00;95621.27;107381;1272;2392423;-80
2024/01/01 10:45:20;;;;;;;0.90;0.70;;;;;;;1.45;100.00;95621.55;109097;1266;168068;-81
2024/01/01 10:47:59;;;;;;;1.70;0.60;;;;;;;1.38;100.00;95620.66;109190;1266;22956;-80
2024/01/01 10:50:35;;;;;;;1.00;0.50;;;;;;;1.33;100.00;95625.84;109188;1272;23442;-79
2024/01/01 10:53:21;;;;;;;2.10;0.80;;;;;;;1.28;100.00;95625.98;109219;1269;47621;-80
2024/01/01 10:56:08;;;;;;;4.90;3.10;;;;;;;1.21;100.00;95627.31;109204;1265;22480;-80
2024/01/01 10:58:53;;;;;;;4.00;2.30;;;;;;;1.19;99.99;95629.65;109157;1272;23401;-79
2024/01/01 11:01:26;;;;;;;5.00;2.50;;;;;;;1.11;99.87;95630.48;109192;1271;22525;-80
2024/01/01 11:03:59;;;;;;;1.70;1.00;;;;;;;1.06;99.87;95626.65;109093;1270;22514;-80
2024/01/01 11:06:39;;;;;;;4.50;2.00;;;;;;;1.04;99.99;95628.46;109128;1266;22987;-79
2024/01/01 11:09:37;;;;;;;6.00;3.30;;;;;;;1.00;99.86;95630.09;109083;1272;22816;-80
2024/01/01 11:12:11;;;;;;;3.90;2.20;;;;;;;0.98;99.91;95632.45;109005;1269;78418;-80
2024/01/01 11:14:45;;;;;;;4.10;1.80;;;;;;;0.94;99.80;95632.44;109194;1272;22554;-80
2024/01/01 11:17:26;;;;;;;4.30;1.90;;;;;;;0.90;99.96;95640.66;109172;1272;22468;-80
2024/01/01 11:19:57;;;;;;;4.00;2.00;;;;;;;0.86;99.92;95641.12;109209;1266;22517;-80
2024/01/01 11:22:39;;;;;;;4.90;2.40;;;;;;;0.84;99.84;95639.89;109160;1269;58725;-80
2024/01/01 11:25:36;;;;;;;3.70;1.90;;;;;;;0.84;100.00;95632.17;109199;1269;23164;-80
2024/01/01 11:28:09;;;;;;;4.00;1.80;;;;;;;0.84;100.00;95634.66;109197;1266;22544;-79
2024/01/01 11:30:45;;;;;;;5.00;2.50;;;;;;;0.85;100.00;95637.14;109181;1266;22543;-79
2024/01/01 11:33:18;;;;;;;1.60;1.10;;;;;;;0.86;100.00;95638.05;109157;1266;41440;-81
2024/01/01 11:35:50;;;;;;;5.20;2.70;;;;;;;0.86;100.00;95638.88;109143;1269;23884;-80
2024/01/01 11:38:24;;;;;;;6.10;2.80;;;;;;;0.84;100.00;95640.56;109101;1268;73378;-80
2024/01/01 11:41:00;;;;;;;5.60;2.90;;;;;;;0.85;100.00;95639.08;109180;1269;22571;-80
2024/01/01 11:43:32;;;;;;;3.00;1.40;;;;;;;0.85;100.00;95637.57;109253;1271;23868;-80
2024/01/01 11:46:06;;;;;;;5.00;2.70;;;;;;;0.86;100.00;95641.29;109172;1269;22473;-78
2024/01/01 11:48:39;;;;;;;2.80;1.50;;;;;;;0.86;100.00;95642.23;109211;1269;57636;-81
2024/01/01 11:51:10;;;;;;;2.90;1.20;;;;;;;0.87;100.00;95646.56;109151;1272;22497;-79
2024/01/01 11:56:49;;;;;;;1.90;1.30;;;;;;;0.90;100.00;95650.78;109219;1269;22688;-79
2024/01/01 11:59:22;;;;;;;2.50;1.50;;;;;;;0.93;100.00;95660.61;109097;1266;56771;-80
2024/01/01 12:01:55;;;;;;;4.80;2.80;;;;;;;0.93;100.00;95665.64;109171;1266;22592;-82